Time;durP1;ratioP1;P1;durP2;ratioP2;P2;SDS_P1;SDS_P2;PMS_P1;PMS_P2;Temp;Humidity;BMP_temperature;BMP_pressure;BME280_temperature;BME280_humidity;BME280_pressure;Samples;Min_cycle;Max_cycle;Signal;HPM_P1;HPM_P2
2022/05/12 00:00:59;;;;;;;5.00;4.40;;;;;;;;;;5083597;27;20580;-54
2022/05/12 00:03:39;;;;;;;5.30;3.97;;;;;;;;;;5144991;27;20884;-54
2022/05/12 00:06:19;;;;;;;4.50;4.10;;;;;;;;;;5082502;27;20910;-53
2022/05/12 00:08:59;;;;;;;4.82;3.70;;;;;;;;;;5082584;27;20671;-56
2022/05/12 00:11:39;;;;;;;3.70;3.50;;;;;;;;;;5083368;27;20551;-56
2022/05/12 00:14:19;;;;;;;3.83;3.50;;;;;;;;;;5080308;27;20578;-54
2022/05/12 00:16:58;;;;;;;5.80;3.80;;;;;;;;;;5081741;28;20687;-54
2022/05/12 00:19:38;;;;;;;3.80;3.50;;;;;;;;;;5108054;27;21206;-56
2022/05/12 00:22:18;;;;;;;4.30;3.95;;;;;;;;;;5103953;27;21066;-56
2022/05/12 00:24:58;;;;;;;4.25;3.85;;;;;;;;;;5118891;27;20553;-55
2022/05/12 00:27:37;;;;;;;3.60;3.30;;;;;;;;;;5131488;27;20546;-54
2022/05/12 00:30:17;;;;;;;3.80;3.58;;;;;;;;;;5083404;27;20561;-56
2022/05/12 00:32:57;;;;;;;6.32;3.60;;;;;;;;;;5082496;27;20577;-54
2022/05/12 00:35:37;;;;;;;4.00;3.55;;;;;;;;;;5113839;27;20606;-57
2022/05/12 00:38:17;;;;;;;3.80;3.50;;;;;;;;;;5135786;27;20592;-56
2022/05/12 00:40:57;;;;;;;4.75;4.30;;;;;;;;;;5133091;27;20666;-56
2022/05/12 00:43:41;;;;;;;3.85;3.55;;;;;;;;;;5137434;27;20969;-54
2022/05/12 00:46:22;;;;;;;5.32;4.50;;;;;;;;;;5102278;27;21199;-56
2022/05/12 00:49:04;;;;;;;4.82;4.38;;;;;;;;;;5106974;27;20598;-57
2022/05/12 00:51:47;;;;;;;4.03;3.72;;;;;;;;;;5103395;27;20550;-57
2022/05/12 00:54:29;;;;;;;5.97;4.10;;;;;;;;;;5078743;27;21029;-57
2022/05/12 00:57:09;;;;;;;4.72;4.32;;;;;;;;;;5101955;27;20529;-56
2022/05/12 00:59:50;;;;;;;4.40;3.95;;;;;;;;;;5103651;27;20596;-55
2022/05/12 01:02:30;;;;;;;4.68;3.88;;;;;;;;;;5123868;27;20828;-54
2022/05/12 01:05:10;;;;;;;4.47;4.03;;;;;;;;;;5110461;27;20553;-56
2022/05/12 01:07:51;;;;;;;4.10;3.80;;;;;;;;;;5123926;27;20656;-54
2022/05/12 01:10:31;;;;;;;4.55;3.60;;;;;;;;;;5079134;27;21160;-56
2022/05/12 01:13:11;;;;;;;4.07;3.67;;;;;;;;;;5083430;27;20571;-54
2022/05/12 01:15:55;;;;;;;3.97;3.55;;;;;;;;;;5082027;27;20569;-54
2022/05/12 01:18:38;;;;;;;4.18;3.88;;;;;;;;;;5082993;27;20581;-56
2022/05/12 01:21:18;;;;;;;8.00;4.75;;;;;;;;;;5083473;28;21034;-55
2022/05/12 01:23:58;;;;;;;4.45;4.15;;;;;;;;;;5133918;27;21198;-56
2022/05/12 01:26:38;;;;;;;4.10;3.80;;;;;;;;;;5143204;27;20592;-56
2022/05/12 01:29:18;;;;;;;3.28;2.97;;;;;;;;;;5082922;28;20663;-56
2022/05/12 01:31:57;;;;;;;3.20;2.72;;;;;;;;;;5141238;27;20664;-55
2022/05/12 01:34:37;;;;;;;4.65;3.47;;;;;;;;;;5131455;27;21051;-55
2022/05/12 01:37:17;;;;;;;3.67;3.38;;;;;;;;;;5081628;27;21302;-54
2022/05/12 01:39:57;;;;;;;4.38;3.90;;;;;;;;;;5084050;28;20664;-57
2022/05/12 01:42:37;;;;;;;3.97;3.55;;;;;;;;;;5083101;27;20551;-56
2022/05/12 01:45:16;;;;;;;3.95;3.30;;;;;;;;;;5143897;27;20608;-54
2022/05/12 01:47:56;;;;;;;3.40;3.10;;;;;;;;;;5162785;27;20682;-55
2022/05/12 01:50:36;;;;;;;11.95;3.60;;;;;;;;;;5083616;28;20601;-54
2022/05/12 01:53:17;;;;;;;4.25;3.00;;;;;;;;;;5083286;27;21064;-56
2022/05/12 01:55:58;;;;;;;3.47;3.17;;;;;;;;;;5141764;27;20546;-55
2022/05/12 01:58:39;;;;;;;2.85;2.65;;;;;;;;;;5136631;27;20544;-56
2022/05/12 02:01:19;;;;;;;2.90;2.60;;;;;;;;;;5083476;28;20601;-54
2022/05/12 02:03:58;;;;;;;3.10;2.90;;;;;;;;;;5082319;27;20572;-54
2022/05/12 02:06:38;;;;;;;3.55;3.25;;;;;;;;;;5143252;27;20675;-56
2022/05/12 02:09:18;;;;;;;3.60;3.00;;;;;;;;;;5083271;28;20598;-56
2022/05/12 02:11:58;;;;;;;3.30;2.92;;;;;;;;;;5124305;27;20536;-54
2022/05/12 02:14:38;;;;;;;3.72;3.42;;;;;;;;;;5140318;27;20690;-53
2022/05/12 02:17:18;;;;;;;3.13;2.92;;;;;;;;;;5081557;27;20566;-56
2022/05/12 02:19:57;;;;;;;3.13;2.80;;;;;;;;;;5082576;28;20672;-56
2022/05/12 02:22:37;;;;;;;3.22;3.00;;;;;;;;;;5083308;27;20935;-56
2022/05/12 02:25:18;;;;;;;3.40;3.10;;;;;;;;;;5081735;28;21095;-56
2022/05/12 02:27:59;;;;;;;4.72;3.35;;;;;;;;;;5103318;27;20665;-54
2022/05/12 02:30:39;;;;;;;7.63;3.60;;;;;;;;;;5083365;27;20581;-56
2022/05/12 02:33:18;;;;;;;4.13;3.83;;;;;;;;;;5132434;27;20613;-56
2022/05/12 02:35:58;;;;;;;3.95;3.65;;;;;;;;;;5108289;27;20603;-54
2022/05/12 02:38:39;;;;;;;3.70;3.38;;;;;;;;;;5113100;27;20544;-56
2022/05/12 02:41:19;;;;;;;3.30;3.08;;;;;;;;;;5083456;27;20572;-54
2022/05/12 02:43:59;;;;;;;3.40;3.20;;;;;;;;;;5102818;27;20546;-54
2022/05/12 02:46:39;;;;;;;3.65;3.30;;;;;;;;;;5122590;27;20540;-54
2022/05/12 02:49:19;;;;;;;4.00;3.58;;;;;;;;;;5114679;27;20597;-56
2022/05/12 02:51:59;;;;;;;3.55;3.25;;;;;;;;;;5123742;27;20663;-54
2022/05/12 02:54:38;;;;;;;3.40;3.20;;;;;;;;;;5077944;27;20549;-54
2022/05/12 02:57:19;;;;;;;6.70;3.70;;;;;;;;;;5122881;27;20667;-54
2022/05/12 02:59:58;;;;;;;4.22;3.83;;;;;;;;;;5154939;27;20541;-54
2022/05/12 03:02:38;;;;;;;4.93;3.92;;;;;;;;;;5082478;27;20551;-56
2022/05/12 03:05:18;;;;;;;4.18;3.63;;;;;;;;;;5090070;27;20628;-56
2022/05/12 03:07:57;;;;;;;4.43;4.00;;;;;;;;;;5102349;27;21103;-54
2022/05/12 03:10:38;;;;;;;4.22;3.83;;;;;;;;;;5060908;27;20809;-56
2022/05/12 03:13:17;;;;;;;4.28;3.97;;;;;;;;;;5123224;27;20548;-56
2022/05/12 03:15:57;;;;;;;4.20;3.92;;;;;;;;;;5084540;27;20555;-56
2022/05/12 03:18:37;;;;;;;4.40;4.03;;;;;;;;;;5143201;27;20538;-55
2022/05/12 03:21:17;;;;;;;4.30;4.10;;;;;;;;;;5142419;27;20554;-57
2022/05/12 03:23:56;;;;;;;4.00;3.80;;;;;;;;;;5123470;27;20947;-54
2022/05/12 03:26:36;;;;;;;4.60;4.20;;;;;;;;;;5081821;28;20594;-56
2022/05/12 03:29:17;;;;;;;4.30;4.00;;;;;;;;;;5082967;27;20934;-56
2022/05/12 03:31:58;;;;;;;4.45;4.15;;;;;;;;;;5124121;27;21005;-55
2022/05/12 03:34:38;;;;;;;3.95;3.75;;;;;;;;;;5144437;27;20558;-56
2022/05/12 03:37:19;;;;;;;6.53;4.40;;;;;;;;;;5102655;27;20673;-54
2022/05/12 03:39:59;;;;;;;4.18;3.88;;;;;;;;;;5083279;27;20535;-56
2022/05/12 03:42:39;;;;;;;4.90;4.28;;;;;;;;;;5104010;27;20534;-55
2022/05/12 03:45:21;;;;;;;20.45;4.30;;;;;;;;;;5123040;27;20556;-56
2022/05/12 03:48:02;;;;;;;3.00;2.80;;;;;;;;;;5144724;27;21082;-54
2022/05/12 03:50:42;;;;;;;5.22;3.67;;;;;;;;;;5125104;27;20535;-56
2022/05/12 03:53:23;;;;;;;4.10;3.70;;;;;;;;;;5104719;27;20882;-56
2022/05/12 03:56:03;;;;;;;4.18;3.78;;;;;;;;;;5105673;27;21044;-55
2022/05/12 03:58:43;;;;;;;6.55;3.65;;;;;;;;;;5083661;28;20668;-56
2022/05/12 04:01:24;;;;;;;6.30;3.60;;;;;;;;;;5103754;27;21112;-56
2022/05/12 04:04:04;;;;;;;4.30;4.00;;;;;;;;;;5145076;27;20892;-56
2022/05/12 04:06:43;;;;;;;4.05;3.75;;;;;;;;;;5143375;27;20587;-57
2022/05/12 04:09:23;;;;;;;6.45;4.55;;;;;;;;;;5124146;27;20544;-54
2022/05/12 04:12:03;;;;;;;4.32;4.03;;;;;;;;;;5103908;27;20857;-56
2022/05/12 04:14:43;;;;;;;4.38;3.97;;;;;;;;;;5075674;28;20963;-55
2022/05/12 04:17:24;;;;;;;4.38;3.75;;;;;;;;;;5143042;27;20415;-54
2022/05/12 04:20:04;;;;;;;5.82;3.28;;;;;;;;;;5082104;27;20556;-54
2022/05/12 04:22:44;;;;;;;3.33;3.10;;;;;;;;;;5124161;27;20548;-56
2022/05/12 04:25:24;;;;;;;3.50;3.22;;;;;;;;;;5070417;27;20557;-54
2022/05/12 04:28:04;;;;;;;3.17;2.97;;;;;;;;;;5131810;27;21257;-53
2022/05/12 04:30:45;;;;;;;3.25;3.05;;;;;;;;;;5084988;27;20548;-56
2022/05/12 04:36:22;;;;;;;4.57;3.28;;;;;;;;;;5124778;27;20578;-55
2022/05/12 04:39:03;;;;;;;3.63;3.33;;;;;;;;;;5103600;27;20591;-55
2022/05/12 04:41:43;;;;;;;3.85;3.03;;;;;;;;;;5084610;27;20565;-53
2022/05/12 04:44:23;;;;;;;3.38;3.13;;;;;;;;;;5138072;27;20555;-53
2022/05/12 04:47:03;;;;;;;3.03;2.80;;;;;;;;;;5084052;28;20677;-55
2022/05/12 04:49:56;;;;;;;3.75;3.10;;;;;;;;;;5084425;27;20546;-56
2022/05/12 04:52:36;;;;;;;4.47;2.97;;;;;;;;;;5084578;28;20676;-56
2022/05/12 04:55:17;;;;;;;5.13;2.78;;;;;;;;;;5126041;27;21037;-56
2022/05/12 04:57:59;;;;;;;3.08;2.72;;;;;;;;;;5084401;28;20554;-53
2022/05/12 05:00:41;;;;;;;2.78;2.58;;;;;;;;;;5084486;27;21026;-55
2022/05/12 05:03:20;;;;;;;5.10;2.70;;;;;;;;;;5125624;27;20557;-55
2022/05/12 05:06:00;;;;;;;2.55;2.45;;;;;;;;;;5067377;28;21081;-53
2022/05/12 05:08:40;;;;;;;3.15;2.83;;;;;;;;;;5084625;27;21022;-55
2022/05/12 05:11:20;;;;;;;3.22;3.03;;;;;;;;;;5085091;27;21149;-53
2022/05/12 05:14:00;;;;;;;4.63;2.78;;;;;;;;;;5083945;27;20559;-53
2022/05/12 05:16:39;;;;;;;2.55;2.35;;;;;;;;;;5084646;28;20616;-55
2022/05/12 05:19:19;;;;;;;2.40;2.20;;;;;;;;;;5140401;27;20935;-54
2022/05/12 05:21:59;;;;;;;2.60;2.40;;;;;;;;;;5084181;28;20870;-52
2022/05/12 05:24:39;;;;;;;2.30;2.10;;;;;;;;;;5081589;27;20553;-52
2022/05/12 05:27:19;;;;;;;2.05;1.95;;;;;;;;;;5084649;27;20559;-52
2022/05/12 05:29:59;;;;;;;2.35;2.15;;;;;;;;;;5124988;27;20669;-52
2022/05/12 05:32:39;;;;;;;2.50;2.30;;;;;;;;;;5084718;27;20539;-53
2022/05/12 05:35:19;;;;;;;2.05;1.83;;;;;;;;;;5073268;28;21076;-55
2022/05/12 05:38:00;;;;;;;4.63;2.47;;;;;;;;;;5129860;27;20548;-54
2022/05/12 05:40:39;;;;;;;4.05;2.25;;;;;;;;;;5085153;28;20605;-53
2022/05/12 05:43:20;;;;;;;2.05;1.95;;;;;;;;;;5085141;27;20565;-53
2022/05/12 05:46:01;;;;;;;1.75;1.65;;;;;;;;;;5125464;27;20552;-55
2022/05/12 05:48:41;;;;;;;3.22;1.65;;;;;;;;;;5125572;27;20536;-55
2022/05/12 05:54:18;;;;;;;1.95;1.70;;;;;;;;;;5118197;27;20563;-55
2022/05/12 05:56:58;;;;;;;2.55;1.42;;;;;;;;;;5084273;27;20552;-55
2022/05/12 05:59:38;;;;;;;4.50;2.22;;;;;;;;;;5130333;27;20691;-53
2022/05/12 06:02:17;;;;;;;2.10;1.70;;;;;;;;;;5085177;27;20560;-53
2022/05/12 06:04:57;;;;;;;5.03;1.70;;;;;;;;;;5146014;27;20610;-55
2022/05/12 06:07:37;;;;;;;1.65;1.52;;;;;;;;;;5084307;27;20544;-53
2022/05/12 06:10:17;;;;;;;1.95;1.75;;;;;;;;;;5117192;27;20540;-53
2022/05/12 06:12:57;;;;;;;4.07;1.63;;;;;;;;;;5084686;27;20540;-54
2022/05/12 06:15:37;;;;;;;1.83;1.73;;;;;;;;;;5146194;27;20551;-52
2022/05/12 06:18:19;;;;;;;1.98;1.67;;;;;;;;;;5146059;27;20538;-55
2022/05/12 06:20:59;;;;;;;2.67;1.55;;;;;;;;;;5116547;27;20540;-52
2022/05/12 06:23:39;;;;;;;2.08;1.85;;;;;;;;;;5138922;27;20671;-53
2022/05/12 06:26:20;;;;;;;3.05;1.80;;;;;;;;;;5084132;28;21200;-53
2022/05/12 06:29:00;;;;;;;2.97;1.35;;;;;;;;;;5146270;27;20662;-55
2022/05/12 06:31:42;;;;;;;1.58;1.45;;;;;;;;;;5125271;27;20532;-53
2022/05/12 06:34:22;;;;;;;2.33;1.48;;;;;;;;;;5104933;27;20614;-53
2022/05/12 06:37:01;;;;;;;3.03;1.73;;;;;;;;;;5116939;27;20542;-52
2022/05/12 06:39:41;;;;;;;11.90;2.28;;;;;;;;;;5084624;28;20965;-53
2022/05/12 06:42:22;;;;;;;2.90;1.40;;;;;;;;;;5151200;27;21030;-56
2022/05/12 06:45:03;;;;;;;2.97;1.48;;;;;;;;;;5117009;27;20615;-54
2022/05/12 06:47:48;;;;;;;2.00;1.73;;;;;;;;;;5084431;28;20547;-53
2022/05/12 06:50:29;;;;;;;1.83;1.73;;;;;;;;;;5125391;27;21052;-55
2022/05/12 06:53:09;;;;;;;2.92;1.73;;;;;;;;;;5084530;28;20621;-55
2022/05/12 06:55:50;;;;;;;1.95;1.80;;;;;;;;;;5068962;28;20662;-53
2022/05/12 06:58:30;;;;;;;2.95;2.05;;;;;;;;;;5137589;27;20588;-52
2022/05/12 07:01:10;;;;;;;4.35;1.50;;;;;;;;;;5125395;27;20547;-52
2022/05/12 07:03:50;;;;;;;2.60;1.20;;;;;;;;;;5124972;27;20552;-55
2022/05/12 07:06:31;;;;;;;1.55;1.45;;;;;;;;;;5084282;27;21076;-55
2022/05/12 07:09:11;;;;;;;1.90;1.73;;;;;;;;;;5105666;27;20680;-53
2022/05/12 07:11:50;;;;;;;1.75;1.65;;;;;;;;;;5084857;27;20580;-53
2022/05/12 07:14:31;;;;;;;1.75;1.42;;;;;;;;;;5080307;27;20541;-55
2022/05/12 07:17:12;;;;;;;1.70;1.60;;;;;;;;;;5084683;27;20561;-53
2022/05/12 07:19:52;;;;;;;2.95;1.80;;;;;;;;;;5146117;27;20538;-53
2022/05/12 07:28:26;;;;;;;1.92;1.50;;;;;;;;;;5146053;27;20565;-53
2022/05/12 07:31:09;;;;;;;2.60;1.25;;;;;;;;;;5084533;28;20589;-53
2022/05/12 07:33:49;;;;;;;2.58;1.50;;;;;;;;;;5124252;27;20609;-54
2022/05/12 07:36:30;;;;;;;3.55;1.80;;;;;;;;;;5084309;27;20554;-56
2022/05/12 07:39:11;;;;;;;3.22;1.52;;;;;;;;;;5084418;27;20570;-55
2022/05/12 07:41:52;;;;;;;1.25;1.00;;;;;;;;;;5151145;27;20937;-54
2022/05/12 07:44:35;;;;;;;2.70;1.48;;;;;;;;;;5100635;27;20851;-55
2022/05/12 07:47:15;;;;;;;2.53;1.23;;;;;;;;;;5084097;27;21110;-54
2022/05/12 07:49:54;;;;;;;2.30;1.42;;;;;;;;;;5146074;27;20534;-55
2022/05/12 07:52:34;;;;;;;5.63;1.83;;;;;;;;;;5126248;27;20540;-53
2022/05/12 07:55:14;;;;;;;1.00;1.00;;;;;;;;;;5125920;27;20551;-52
2022/05/12 07:57:54;;;;;;;2.55;0.98;;;;;;;;;;5105219;27;20951;-56
2022/05/12 08:00:34;;;;;;;0.90;0.80;;;;;;;;;;5084823;28;20569;-55
2022/05/12 08:03:14;;;;;;;0.93;0.90;;;;;;;;;;5085253;28;20676;-55
2022/05/12 08:05:54;;;;;;;2.15;1.20;;;;;;;;;;5068150;27;20581;-53
2022/05/12 08:08:33;;;;;;;3.30;1.20;;;;;;;;;;5146501;27;20538;-55
2022/05/12 08:11:14;;;;;;;0.93;0.90;;;;;;;;;;5146126;27;20538;-54
2022/05/12 08:13:53;;;;;;;6.70;1.05;;;;;;;;;;5105008;27;20530;-53
2022/05/12 08:16:33;;;;;;;1.70;1.20;;;;;;;;;;5084501;28;21080;-54
2022/05/12 08:19:12;;;;;;;1.42;1.33;;;;;;;;;;5142241;27;20605;-52
2022/05/12 08:21:52;;;;;;;3.90;1.08;;;;;;;;;;5084496;28;20676;-53
2022/05/12 08:24:32;;;;;;;1.65;0.90;;;;;;;;;;5084315;27;20550;-55
2022/05/12 08:27:13;;;;;;;2.58;0.90;;;;;;;;;;5133735;27;20682;-53
2022/05/12 08:29:54;;;;;;;3.20;1.33;;;;;;;;;;5127877;27;20536;-54
2022/05/12 08:32:33;;;;;;;1.40;1.30;;;;;;;;;;5125701;27;20536;-54
2022/05/12 08:35:13;;;;;;;6.60;1.40;;;;;;;;;;5141976;27;20571;-55
2022/05/12 08:37:53;;;;;;;1.83;1.30;;;;;;;;;;5125642;27;21056;-53
2022/05/12 08:40:37;;;;;;;3.03;1.45;;;;;;;;;;5084271;27;20543;-55
2022/05/12 08:43:18;;;;;;;1.90;1.10;;;;;;;;;;5125160;27;20532;-55
2022/05/12 08:46:03;;;;;;;1.08;0.98;;;;;;;;;;5134835;27;20560;-53
2022/05/12 08:48:44;;;;;;;0.95;0.95;;;;;;;;;;5104700;27;20542;-54
2022/05/12 08:51:25;;;;;;;1.98;1.23;;;;;;;;;;5146655;27;20876;-53
2022/05/12 08:54:06;;;;;;;2.08;1.40;;;;;;;;;;5124743;27;20540;-53
2022/05/12 08:56:46;;;;;;;2.38;1.23;;;;;;;;;;5085201;27;20572;-53
2022/05/12 08:59:26;;;;;;;4.53;1.00;;;;;;;;;;5146556;27;20878;-53
2022/05/12 09:02:11;;;;;;;2.03;1.40;;;;;;;;;;5076598;28;20686;-55
2022/05/12 09:05:00;;;;;;;2.92;1.45;;;;;;;;;;5137209;27;20974;-54
2022/05/12 09:07:42;;;;;;;5.75;1.65;;;;;;;;;;5084682;27;20569;-53
2022/05/12 09:10:33;;;;;;;1.42;1.27;;;;;;;;;;5104891;27;20538;-53
2022/05/12 09:13:14;;;;;;;2.38;1.50;;;;;;;;;;5137757;27;20534;-53
2022/05/12 09:15:57;;;;;;;3.03;1.30;;;;;;;;;;5145748;27;20554;-52
2022/05/12 09:18:37;;;;;;;2.65;1.60;;;;;;;;;;5137477;27;20669;-53
2022/05/12 09:21:18;;;;;;;3.13;1.40;;;;;;;;;;5084631;27;20572;-56
2022/05/12 09:23:58;;;;;;;2.13;1.23;;;;;;;;;;5146294;27;20538;-53
2022/05/12 09:26:40;;;;;;;5.13;1.33;;;;;;;;;;5084585;28;20612;-54
2022/05/12 09:29:24;;;;;;;1.80;1.10;;;;;;;;;;5084964;27;21107;-53
2022/05/12 09:32:22;;;;;;;2.33;1.25;;;;;;;;;;5147518;27;20538;-53
2022/05/12 09:35:13;;;;;;;1.70;1.60;;;;;;;;;;5147542;27;20557;-53
2022/05/12 09:37:53;;;;;;;1.60;1.30;;;;;;;;;;5085203;28;20556;-53
2022/05/12 09:40:35;;;;;;;4.35;1.58;;;;;;;;;;5084482;27;20543;-54
2022/05/12 09:43:20;;;;;;;2.33;1.65;;;;;;;;;;5145912;27;20538;-53
2022/05/12 09:46:20;;;;;;;1.50;1.17;;;;;;;;;;5066613;27;20586;-55
2022/05/12 09:49:14;;;;;;;1.25;1.15;;;;;;;;;;5083578;28;21189;-53
2022/05/12 09:51:55;;;;;;;1.58;1.33;;;;;;;;;;5137741;27;20656;-54
2022/05/12 09:54:34;;;;;;;3.25;1.35;;;;;;;;;;5167070;27;20682;-52
2022/05/12 09:57:17;;;;;;;1.67;1.33;;;;;;;;;;5133215;27;21193;-53
2022/05/12 09:59:58;;;;;;;3.22;1.50;;;;;;;;;;5085165;27;20557;-55
2022/05/12 10:08:34;;;;;;;1.88;0.95;;;;;;;;;;5084327;27;21117;-55
2022/05/12 10:11:15;;;;;;;5.22;1.17;;;;;;;;;;5084446;28;20640;-55
2022/05/12 10:13:58;;;;;;;1.50;1.40;;;;;;;;;;5085107;27;20568;-53
2022/05/12 10:16:38;;;;;;;1.80;1.42;;;;;;;;;;5118376;27;20575;-53
2022/05/12 10:19:22;;;;;;;1.35;1.25;;;;;;;;;;5084552;28;21019;-52
2022/05/12 10:22:08;;;;;;;1.75;1.30;;;;;;;;;;5146104;27;20580;-53
2022/05/12 10:24:58;;;;;;;2.40;1.42;;;;;;;;;;5129524;27;21214;-53
2022/05/12 10:27:44;;;;;;;1.35;1.25;;;;;;;;;;5084800;28;20597;-53
2022/05/12 10:30:43;;;;;;;3.45;1.30;;;;;;;;;;5137566;27;20866;-53
2022/05/12 10:33:27;;;;;;;2.55;1.20;;;;;;;;;;5125377;27;20548;-52
2022/05/12 10:36:17;;;;;;;5.43;1.27;;;;;;;;;;5066037;27;21034;-52
2022/05/12 10:39:03;;;;;;;1.35;1.20;;;;;;;;;;5084788;28;20671;-53
2022/05/12 10:41:49;;;;;;;2.03;0.95;;;;;;;;;;5084415;27;20550;-53
2022/05/12 10:44:38;;;;;;;4.55;2.08;;;;;;;;;;5080384;28;20619;-53
2022/05/12 10:47:24;;;;;;;1.58;1.02;;;;;;;;;;5145501;27;20542;-53
2022/05/12 10:50:12;;;;;;;1.50;1.00;;;;;;;;;;5125816;27;20544;-52
2022/05/12 10:52:56;;;;;;;4.32;1.00;;;;;;;;;;5125013;27;20540;-52
2022/05/12 10:55:41;;;;;;;3.30;1.45;;;;;;;;;;5145708;27;21213;-53
2022/05/12 10:58:26;;;;;;;2.97;1.15;;;;;;;;;;5084887;27;20551;-53
2022/05/12 11:01:15;;;;;;;3.58;1.10;;;;;;;;;;5084407;28;20996;-53
2022/05/12 11:03:58;;;;;;;1.25;0.80;;;;;;;;;;5084476;28;21201;-52
2022/05/12 11:06:40;;;;;;;3.17;0.98;;;;;;;;;;5084401;28;20547;-53
2022/05/12 11:09:22;;;;;;;3.00;1.00;;;;;;;;;;5084534;27;20573;-55
2022/05/12 11:12:05;;;;;;;2.33;1.02;;;;;;;;;;5116762;27;20822;-52
2022/05/12 11:14:49;;;;;;;1.13;0.90;;;;;;;;;;5124857;27;20952;-54
2022/05/12 11:17:32;;;;;;;4.53;1.45;;;;;;;;;;5137812;27;20930;-53
2022/05/12 11:20:23;;;;;;;3.78;1.10;;;;;;;;;;5085303;28;20676;-53
2022/05/12 11:23:12;;;;;;;3.08;1.73;;;;;;;;;;5126695;27;20560;-53
2022/05/12 11:25:59;;;;;;;3.60;1.08;;;;;;;;;;5125225;27;20551;-56
2022/05/12 11:31:55;;;;;;;2.45;0.93;;;;;;;;;;5084750;27;20934;-53
2022/05/12 11:34:36;;;;;;;1.10;0.90;;;;;;;;;;5081515;27;20568;-54
2022/05/12 11:37:30;;;;;;;2.38;1.10;;;;;;;;;;5091476;27;20548;-53
2022/05/12 11:40:11;;;;;;;1.25;1.13;;;;;;;;;;5116951;27;20556;-52
2022/05/12 11:46:16;;;;;;;2.60;1.70;;;;;;;;;;5067572;28;20686;-54
2022/05/12 11:48:58;;;;;;;2.17;1.65;;;;;;;;;;5104230;27;20572;-53
2022/05/12 11:51:42;;;;;;;1.05;0.95;;;;;;;;;;5154104;27;20541;-53
2022/05/12 11:54:26;;;;;;;1.02;0.68;;;;;;;;;;5081314;28;20689;-54
2022/05/12 11:57:06;;;;;;;0.95;0.70;;;;;;;;;;5104844;27;20681;-53
2022/05/12 11:59:50;;;;;;;1.45;1.20;;;;;;;;;;5128506;27;20596;-55
2022/05/12 12:02:55;;;;;;;1.55;0.93;;;;;;;;;;5084663;27;20531;-54
2022/05/12 12:06:04;;;;;;;1.85;1.10;;;;;;;;;;5125017;27;20548;-54
2022/05/12 12:08:45;;;;;;;4.80;0.98;;;;;;;;;;5125163;27;20544;-54
2022/05/12 12:11:27;;;;;;;3.70;0.93;;;;;;;;;;5084463;27;20570;-53
2022/05/12 12:14:07;;;;;;;1.95;1.58;;;;;;;;;;5125310;27;20536;-54
2022/05/12 12:17:06;;;;;;;1.70;1.25;;;;;;;;;;5084224;28;20544;-55
2022/05/12 12:19:49;;;;;;;1.55;0.90;;;;;;;;;;5084647;27;20551;-53
2022/05/12 12:22:42;;;;;;;1.27;0.88;;;;;;;;;;5145925;27;20538;-53
2022/05/12 12:25:31;;;;;;;2.22;1.67;;;;;;;;;;5141400;27;20877;-53
2022/05/12 12:28:30;;;;;;;0.77;0.77;;;;;;;;;;5113861;27;20584;-53
2022/05/12 12:31:23;;;;;;;1.95;0.98;;;;;;;;;;5084487;28;20588;-53
2022/05/12 12:34:12;;;;;;;4.32;1.33;;;;;;;;;;5103887;27;20952;-53
2022/05/12 12:37:00;;;;;;;1.55;1.00;;;;;;;;;;5084019;27;20616;-53
2022/05/12 12:39:41;;;;;;;3.70;1.25;;;;;;;;;;5084920;27;21072;-54
2022/05/12 12:42:28;;;;;;;3.17;0.98;;;;;;;;;;5146222;27;20536;-53
2022/05/12 12:45:12;;;;;;;4.50;1.05;;;;;;;;;;5094438;27;20692;-54
2022/05/12 12:47:56;;;;;;;1.52;0.80;;;;;;;;;;5135966;27;21070;-52
2022/05/12 12:50:43;;;;;;;2.58;1.30;;;;;;;;;;5139196;27;21048;-52
2022/05/12 12:56:32;;;;;;;1.95;0.70;;;;;;;;;;5131271;27;20589;-53
2022/05/12 12:59:16;;;;;;;5.65;1.27;;;;;;;;;;5125253;27;20536;-52
2022/05/12 13:01:59;;;;;;;1.95;0.80;;;;;;;;;;5125985;27;20854;-53
2022/05/12 13:04:39;;;;;;;1.40;1.02;;;;;;;;;;5132797;27;21261;-52
2022/05/12 13:07:25;;;;;;;2.80;1.30;;;;;;;;;;5084652;28;20660;-53
2022/05/12 13:10:06;;;;;;;2.15;0.90;;;;;;;;;;5129028;27;20601;-52
2022/05/12 13:12:53;;;;;;;1.55;1.20;;;;;;;;;;5125271;27;20552;-53
2022/05/12 13:15:34;;;;;;;1.55;1.08;;;;;;;;;;5071104;27;20993;-53
2022/05/12 13:18:21;;;;;;;1.20;1.00;;;;;;;;;;5084259;28;20953;-52
2022/05/12 13:21:04;;;;;;;4.22;1.10;;;;;;;;;;5084337;28;20942;-52
2022/05/12 13:23:44;;;;;;;2.60;1.25;;;;;;;;;;5085043;28;20586;-52
2022/05/12 13:26:25;;;;;;;0.95;0.82;;;;;;;;;;5104717;27;20956;-52
2022/05/12 13:29:07;;;;;;;1.25;0.95;;;;;;;;;;5084949;28;21196;-53
2022/05/12 13:31:54;;;;;;;1.88;1.23;;;;;;;;;;5084656;28;20590;-53
2022/05/12 13:34:35;;;;;;;1.13;1.02;;;;;;;;;;5147414;27;20551;-53
2022/05/12 13:37:18;;;;;;;2.20;0.88;;;;;;;;;;5084581;27;20573;-52
2022/05/12 13:40:00;;;;;;;1.73;1.20;;;;;;;;;;5146198;27;20531;-53
2022/05/12 13:42:43;;;;;;;2.33;1.40;;;;;;;;;;5084878;27;20560;-53
2022/05/12 13:45:25;;;;;;;3.10;1.05;;;;;;;;;;5093188;27;20555;-54
2022/05/12 13:48:06;;;;;;;1.17;0.82;;;;;;;;;;5125493;27;20548;-52
2022/05/12 13:50:47;;;;;;;2.85;0.95;;;;;;;;;;5146850;27;20879;-53
2022/05/12 13:53:28;;;;;;;1.98;0.93;;;;;;;;;;5125581;27;20547;-53
2022/05/12 13:56:14;;;;;;;4.35;0.95;;;;;;;;;;5066399;28;20618;-54
2022/05/12 13:58:54;;;;;;;2.70;0.80;;;;;;;;;;5125398;27;20544;-55
2022/05/12 14:01:36;;;;;;;2.15;1.05;;;;;;;;;;5146186;27;21116;-53
2022/05/12 14:04:20;;;;;;;2.30;1.00;;;;;;;;;;5082121;28;20589;-52
2022/05/12 14:07:00;;;;;;;1.50;1.08;;;;;;;;;;5145750;27;20542;-53
2022/05/12 14:09:54;;;;;;;1.30;0.80;;;;;;;;;;5084569;28;20572;-53
2022/05/12 14:12:34;;;;;;;7.50;1.13;;;;;;;;;;5126022;27;20686;-52
2022/05/12 14:21:09;;;;;;;4.25;0.90;;;;;;;;;;5104914;27;20537;-52
2022/05/12 14:23:49;;;;;;;2.78;1.23;;;;;;;;;;5137530;27;20590;-53
2022/05/12 14:26:29;;;;;;;3.22;0.95;;;;;;;;;;5125073;27;20548;-52
2022/05/12 14:29:09;;;;;;;2.95;0.93;;;;;;;;;;5125565;27;20949;-53
2022/05/12 14:31:50;;;;;;;2.55;1.08;;;;;;;;;;5084546;28;21019;-53
2022/05/12 14:34:30;;;;;;;2.58;0.90;;;;;;;;;;5100477;27;20562;-53
2022/05/12 14:37:10;;;;;;;2.13;1.00;;;;;;;;;;5146084;27;20956;-52
2022/05/12 14:39:49;;;;;;;0.70;0.70;;;;;;;;;;5137179;27;21132;-53
2022/05/12 14:42:29;;;;;;;2.33;1.10;;;;;;;;;;5125544;27;21191;-53
2022/05/12 14:45:10;;;;;;;1.88;0.95;;;;;;;;;;5074606;28;20602;-52
2022/05/12 14:47:53;;;;;;;4.25;0.80;;;;;;;;;;5145532;27;20534;-52
2022/05/12 14:50:35;;;;;;;1.27;0.70;;;;;;;;;;5131353;27;20540;-52
2022/05/12 14:53:16;;;;;;;6.80;0.90;;;;;;;;;;5105059;27;20605;-52
2022/05/12 14:55:56;;;;;;;1.80;1.30;;;;;;;;;;5125449;27;20544;-53
2022/05/12 14:58:37;;;;;;;1.55;0.98;;;;;;;;;;5146137;27;21028;-54
2022/05/12 15:01:18;;;;;;;2.45;0.90;;;;;;;;;;5084873;27;20557;-54
2022/05/12 15:03:59;;;;;;;1.23;0.98;;;;;;;;;;5084755;28;20683;-52
2022/05/12 15:06:39;;;;;;;1.10;0.88;;;;;;;;;;5084674;28;20535;-53
2022/05/12 15:09:19;;;;;;;1.52;1.42;;;;;;;;;;5145936;27;20534;-53
2022/05/12 15:11:59;;;;;;;0.90;0.80;;;;;;;;;;5144064;27;20535;-52
2022/05/12 15:14:39;;;;;;;2.22;1.00;;;;;;;;;;5133298;27;20713;-52
2022/05/12 15:17:21;;;;;;;1.77;0.70;;;;;;;;;;5084365;27;20605;-52
2022/05/12 15:20:02;;;;;;;1.92;0.90;;;;;;;;;;5084712;27;20573;-53
2022/05/12 15:22:41;;;;;;;3.35;1.10;;;;;;;;;;5125408;27;20540;-54
2022/05/12 15:25:21;;;;;;;3.90;1.10;;;;;;;;;;5124873;27;20552;-53
2022/05/12 15:28:01;;;;;;;3.30;1.08;;;;;;;;;;5084406;28;20551;-52
2022/05/12 15:30:41;;;;;;;1.90;1.00;;;;;;;;;;5146159;27;20538;-53
2022/05/12 15:33:20;;;;;;;1.20;1.00;;;;;;;;;;5147364;27;20896;-53
2022/05/12 15:36:00;;;;;;;1.58;0.90;;;;;;;;;;5125056;27;20552;-54
2022/05/12 15:38:40;;;;;;;1.75;1.10;;;;;;;;;;5105191;27;20537;-53
2022/05/12 15:41:20;;;;;;;2.95;0.90;;;;;;;;;;5145830;27;20546;-53
2022/05/12 15:44:00;;;;;;;3.42;0.80;;;;;;;;;;5084214;28;20660;-53
2022/05/12 15:46:40;;;;;;;2.15;0.90;;;;;;;;;;5145855;27;21117;-54
2022/05/12 15:49:21;;;;;;;2.40;0.68;;;;;;;;;;5125556;27;20770;-53
2022/05/12 15:52:03;;;;;;;1.27;0.70;;;;;;;;;;5121429;27;20568;-53
2022/05/12 15:54:42;;;;;;;1.85;0.80;;;;;;;;;;5078111;28;20690;-52
2022/05/12 15:57:22;;;;;;;4.53;0.90;;;;;;;;;;5104742;27;20542;-53
2022/05/12 16:00:02;;;;;;;3.70;0.80;;;;;;;;;;5084685;27;20573;-54
2022/05/12 16:02:45;;;;;;;0.75;0.50;;;;;;;;;;5103625;27;20596;-54
2022/05/12 16:05:25;;;;;;;3.10;1.10;;;;;;;;;;5071302;28;20576;-53
2022/05/12 16:08:05;;;;;;;2.53;0.93;;;;;;;;;;5124990;27;20536;-53
2022/05/12 16:10:46;;;;;;;2.55;0.90;;;;;;;;;;5126079;27;21044;-53
2022/05/12 16:13:29;;;;;;;0.88;0.80;;;;;;;;;;5085660;28;20560;-54
2022/05/12 16:16:14;;;;;;;1.25;0.77;;;;;;;;;;5086119;27;20605;-53
2022/05/12 16:18:56;;;;;;;1.08;0.98;;;;;;;;;;5145444;27;20539;-53
2022/05/12 16:21:37;;;;;;;1.38;0.70;;;;;;;;;;5180433;27;20559;-54
2022/05/12 16:24:16;;;;;;;0.93;0.70;;;;;;;;;;5084394;27;20707;-53
2022/05/12 16:26:58;;;;;;;1.38;0.80;;;;;;;;;;5083883;28;20547;-53
2022/05/12 16:29:41;;;;;;;2.85;0.80;;;;;;;;;;5132081;27;20667;-53
2022/05/12 16:32:21;;;;;;;1.25;0.75;;;;;;;;;;5084432;28;20617;-52
2022/05/12 16:35:03;;;;;;;1.95;0.88;;;;;;;;;;5104133;27;21452;-53
2022/05/12 16:37:44;;;;;;;1.25;0.70;;;;;;;;;;5084223;28;20671;-52
2022/05/12 16:40:23;;;;;;;2.08;0.80;;;;;;;;;;5105066;27;20568;-52
2022/05/12 16:43:03;;;;;;;1.25;0.85;;;;;;;;;;5165588;27;21233;-53